createdAt,value
2019-04-10T00:00:47.778Z,10.20
2019-04-10T00:03:27.922Z,10.07
2019-04-10T00:05:50.006Z,10.20
2019-04-10T00:08:19.886Z,10.03
2019-04-10T00:10:49.807Z,10.60
2019-04-10T00:13:20.539Z,9.90
2019-04-10T00:15:50.777Z,10.43
2019-04-10T00:18:20.784Z,9.77
2019-04-10T00:20:51.111Z,9.33
2019-04-10T00:23:20.985Z,10.47
2019-04-10T00:25:50.957Z,9.70
2019-04-10T00:28:20.742Z,10.53
2019-04-10T00:30:51.555Z,10.00
2019-04-10T00:33:21.345Z,10.53
2019-04-10T00:35:51.954Z,9.53
2019-04-10T00:38:21.871Z,10.27
2019-04-10T00:40:52.011Z,10.27
2019-04-10T00:43:22.561Z,10.40
2019-04-10T00:45:53.507Z,10.10
2019-04-10T00:48:23.960Z,9.37
2019-04-10T00:50:54.900Z,9.97
2019-04-10T00:53:25.293Z,9.77
2019-04-10T00:55:55.141Z,9.93
2019-04-10T00:58:25.864Z,10.30
2019-04-10T01:00:55.657Z,9.80
2019-04-10T01:03:44.036Z,9.87
2019-04-10T01:06:15.651Z,10.03
2019-04-10T01:08:45.831Z,10.07
2019-04-10T01:11:17.021Z,9.73
2019-04-10T01:13:47.411Z,9.87
2019-04-10T01:16:17.933Z,9.83
2019-04-10T01:18:47.897Z,10.33
2019-04-10T01:21:18.010Z,10.10
2019-04-10T01:23:48.948Z,8.77
2019-04-10T01:26:19.135Z,9.80
2019-04-10T01:28:49.216Z,9.70
2019-04-10T01:31:19.980Z,9.50
2019-04-10T01:33:49.838Z,9.40
2019-04-10T01:36:20.651Z,10.40
2019-04-10T01:38:51.639Z,10.57
2019-04-10T01:41:21.652Z,9.33
2019-04-10T01:43:51.502Z,9.33
2019-04-10T01:46:22.288Z,10.27
2019-04-10T01:48:52.021Z,9.30
2019-04-10T01:51:21.701Z,9.13
2019-04-10T01:53:52.307Z,9.10
2019-04-10T01:56:29.460Z,10.00
2019-04-10T01:58:53.763Z,9.37
2019-04-10T02:01:30.594Z,9.00
2019-04-10T02:04:00.598Z,8.70
2019-04-10T02:06:31.507Z,9.50
2019-04-10T02:09:02.442Z,8.97
2019-04-10T02:11:32.316Z,9.00
2019-04-10T02:14:02.042Z,9.30
2019-04-10T02:16:32.637Z,10.30
2019-04-10T02:19:02.354Z,9.33
2019-04-10T02:21:32.466Z,8.73
2019-04-10T02:24:02.931Z,7.97
2019-04-10T02:26:33.832Z,9.63
2019-04-10T02:29:03.868Z,8.80
2019-04-10T02:31:34.598Z,9.27
2019-04-10T02:34:05.329Z,8.60
2019-04-10T02:36:36.341Z,9.00
2019-04-10T02:39:19.179Z,9.80
2019-04-10T02:41:38.805Z,9.67
2019-04-10T02:44:10.002Z,9.57
2019-04-10T02:46:41.286Z,9.03
2019-04-10T02:49:12.332Z,8.97
2019-04-10T02:51:43.275Z,9.63
2019-04-10T02:54:13.773Z,9.13
2019-04-10T02:56:45.791Z,8.83
2019-04-10T02:59:15.825Z,9.53
2019-04-10T03:01:45.674Z,8.90
2019-04-10T03:04:16.537Z,9.60
2019-04-10T03:06:47.176Z,8.77
2019-04-10T03:09:32.507Z,9.87
2019-04-10T03:11:49.853Z,9.77
2019-04-10T03:14:21.156Z,9.20
2019-04-10T03:16:51.437Z,9.03
2019-04-10T03:19:21.471Z,9.33
2019-04-10T03:21:51.404Z,10.27
2019-04-10T03:24:21.322Z,9.30
2019-04-10T03:26:52.173Z,9.80
2019-04-10T03:29:22.030Z,10.57
2019-04-10T03:31:52.954Z,10.30
2019-04-10T03:34:26.121Z,10.07
2019-04-10T03:36:56.200Z,9.03
2019-04-10T03:39:26.034Z,8.97
2019-04-10T03:41:56.724Z,9.57
2019-04-10T03:44:27.060Z,9.57
2019-04-10T03:46:56.839Z,9.03
2019-04-10T03:49:27.560Z,9.57
2019-04-10T03:51:57.438Z,9.17
2019-04-10T03:54:28.010Z,9.63
2019-04-10T03:56:58.289Z,10.10
2019-04-10T03:59:28.542Z,9.63
2019-04-10T04:01:59.624Z,9.50
2019-04-10T04:04:29.336Z,9.80
2019-04-10T04:06:59.899Z,9.57
2019-04-10T04:09:29.940Z,9.23
2019-04-10T04:11:59.637Z,9.93
2019-04-10T04:14:30.244Z,10.03
2019-04-10T04:17:00.246Z,9.77
2019-04-10T04:19:30.973Z,8.40
2019-04-10T04:22:00.729Z,9.43
2019-04-10T04:24:31.486Z,9.80
2019-04-10T04:27:01.346Z,9.90
2019-04-10T04:29:31.098Z,9.27
2019-04-10T04:32:01.213Z,8.30
2019-04-10T04:34:31.310Z,8.53
2019-04-10T04:37:01.076Z,8.83
2019-04-10T04:39:31.553Z,9.13
2019-04-10T04:42:01.306Z,8.53
2019-04-10T04:44:31.150Z,8.07
2019-04-10T04:47:01.200Z,8.90
2019-04-10T04:49:31.111Z,8.73
2019-04-10T04:52:00.861Z,8.87
2019-04-10T04:54:30.982Z,8.50
2019-04-10T04:57:00.850Z,7.63
2019-04-10T04:59:30.580Z,7.40
2019-04-10T05:02:01.250Z,8.00
2019-04-10T05:04:32.412Z,7.60
2019-04-10T05:07:02.555Z,7.80
2019-04-10T05:09:37.011Z,8.93
2019-04-10T05:12:03.980Z,8.57
2019-04-10T05:14:33.815Z,8.33
2019-04-10T05:17:03.880Z,8.30
2019-04-10T05:19:34.083Z,8.10
2019-04-10T05:22:04.038Z,8.13
2019-04-10T05:24:33.693Z,8.50
2019-04-10T05:27:03.572Z,7.53
2019-04-10T05:29:34.517Z,8.07
2019-04-10T05:32:05.122Z,8.07
2019-04-10T05:34:34.870Z,9.10
2019-04-10T05:37:05.281Z,9.07
2019-04-10T05:39:44.435Z,8.30
2019-04-10T05:42:06.478Z,7.67
2019-04-10T05:44:36.152Z,9.17
2019-04-10T05:47:06.039Z,7.83
2019-04-10T05:49:35.749Z,8.10
2019-04-10T05:52:06.133Z,7.93
2019-04-10T05:54:37.349Z,8.70
2019-04-10T05:57:08.242Z,7.53
2019-04-10T05:59:38.355Z,8.00
2019-04-10T06:02:09.332Z,7.83
2019-04-10T06:04:39.312Z,7.80
2019-04-10T06:07:09.010Z,7.53
2019-04-10T06:09:38.787Z,8.10
2019-04-10T06:12:09.780Z,7.43
2019-04-10T06:14:40.060Z,7.20
2019-04-10T06:17:10.138Z,8.07
2019-04-10T06:19:40.875Z,7.10
2019-04-10T06:22:11.197Z,7.83
2019-04-10T06:24:42.502Z,7.60
2019-04-10T06:27:12.320Z,8.00
2019-04-10T06:29:44.561Z,7.13
2019-04-10T06:32:13.587Z,7.40
2019-04-10T06:34:43.451Z,7.37
2019-04-10T06:37:13.568Z,7.33
2019-04-10T06:39:44.513Z,7.27
2019-04-10T06:42:14.937Z,7.17
2019-04-10T06:44:46.066Z,7.13
2019-04-10T06:47:16.086Z,7.43
2019-04-10T06:49:46.167Z,7.90
2019-04-10T06:52:16.684Z,8.33
2019-04-10T06:54:47.001Z,7.80
2019-04-10T06:57:16.986Z,9.03
2019-04-10T06:59:46.693Z,7.50
2019-04-10T07:02:24.654Z,8.00
2019-04-10T07:04:53.078Z,7.80
2019-04-10T07:07:21.591Z,7.13
2019-04-10T07:09:52.311Z,8.03
2019-04-10T07:12:23.986Z,7.87
2019-04-10T07:14:57.780Z,7.30
2019-04-10T07:17:25.275Z,8.33
2019-04-10T07:19:55.616Z,7.40
2019-04-10T07:22:25.596Z,7.50
2019-04-10T07:24:56.362Z,7.97
2019-04-10T07:27:26.171Z,7.07
2019-04-10T07:29:59.346Z,7.00
2019-04-10T07:32:27.833Z,7.83
2019-04-10T07:34:59.995Z,7.70
2019-04-10T07:37:29.161Z,7.50
2019-04-10T07:40:02.600Z,7.70
2019-04-10T07:42:35.245Z,8.13
2019-04-10T07:45:02.174Z,8.50
2019-04-10T07:47:31.945Z,7.63
2019-04-10T07:50:02.274Z,7.87
2019-04-10T07:52:33.094Z,7.57
2019-04-10T07:55:02.861Z,7.63
2019-04-10T07:57:32.897Z,8.00
2019-04-10T08:00:03.124Z,8.13
2019-04-10T08:02:33.831Z,7.90
2019-04-10T08:05:04.443Z,8.23
2019-04-10T08:07:36.303Z,7.63
2019-04-10T08:10:08.401Z,8.00
2019-04-10T08:12:45.950Z,8.30
2019-04-10T08:15:10.998Z,8.13
2019-04-10T08:17:41.071Z,8.57
2019-04-10T08:20:11.565Z,8.80
2019-04-10T08:22:41.268Z,9.23
2019-04-10T08:25:11.818Z,9.13
2019-04-10T08:27:41.831Z,9.07
2019-04-10T08:30:13.290Z,8.80
2019-04-10T08:32:55.803Z,8.27
2019-04-10T08:35:15.483Z,9.30
2019-04-10T08:37:45.367Z,9.77
2019-04-10T08:40:16.179Z,10.10
2019-04-10T08:42:46.650Z,10.60
2019-04-10T08:45:17.512Z,9.33
2019-04-10T08:47:47.185Z,10.00
2019-04-10T08:50:17.376Z,9.97
2019-04-10T08:52:47.235Z,9.03
2019-04-10T08:55:17.734Z,8.93
2019-04-10T08:57:47.524Z,9.60
2019-04-10T09:00:18.603Z,10.43
2019-04-10T09:02:48.638Z,10.33
2019-04-10T09:05:19.606Z,10.33
2019-04-10T09:07:50.557Z,10.27
2019-04-10T09:10:20.625Z,9.60
2019-04-10T09:12:51.645Z,10.03
2019-04-10T09:15:21.831Z,10.43
2019-04-10T09:17:51.515Z,9.80
2019-04-10T09:20:21.220Z,10.47
2019-04-10T09:23:14.541Z,9.90
2019-04-10T09:25:22.915Z,11.17
2019-04-10T09:27:53.804Z,10.13
2019-04-10T09:30:24.727Z,10.23
2019-04-10T09:32:54.866Z,9.43
2019-04-10T09:35:24.740Z,10.27
2019-04-10T09:37:54.601Z,10.00
2019-04-10T09:40:24.598Z,10.53
2019-04-10T09:42:55.475Z,10.80
2019-04-10T09:45:26.670Z,11.13
2019-04-10T09:47:56.482Z,9.47
2019-04-10T09:50:27.588Z,10.93
2019-04-10T09:52:57.422Z,11.63
2019-04-10T09:55:27.693Z,11.57
2019-04-10T09:57:57.557Z,10.83
2019-04-10T10:00:27.849Z,11.37
2019-04-10T10:02:57.622Z,12.40
2019-04-10T10:05:28.527Z,11.67
2019-04-10T10:07:58.495Z,11.40
2019-04-10T10:10:29.054Z,11.33
2019-04-10T10:12:59.115Z,11.07
2019-04-10T10:15:29.311Z,10.70
2019-04-10T10:17:59.281Z,10.70
2019-04-10T10:20:29.632Z,11.63
2019-04-10T10:23:01.327Z,12.00
2019-04-10T10:25:31.310Z,11.43
2019-04-10T10:28:01.069Z,11.47
2019-04-10T10:30:31.514Z,11.70
2019-04-10T10:33:01.516Z,11.03
2019-04-10T10:35:31.396Z,11.10
2019-04-10T10:38:01.212Z,11.67
2019-04-10T10:40:31.829Z,10.93
2019-04-10T10:43:02.411Z,11.53
2019-04-10T10:45:32.184Z,11.37
2019-04-10T10:48:03.226Z,10.70
2019-04-10T10:50:33.229Z,11.13
2019-04-10T10:53:03.939Z,11.00
2019-04-10T10:55:33.863Z,10.83
2019-04-10T10:58:03.736Z,11.17
2019-04-10T11:00:33.605Z,11.70
2019-04-10T11:03:03.410Z,11.67
2019-04-10T11:05:33.347Z,11.80
2019-04-10T11:08:03.196Z,10.93
2019-04-10T11:10:33.809Z,10.97
2019-04-10T11:13:03.628Z,12.00
2019-04-10T11:15:34.171Z,11.23
2019-04-10T11:18:04.315Z,11.63
2019-04-10T11:20:34.097Z,11.70
2019-04-10T11:23:04.045Z,12.17
2019-04-10T11:25:34.151Z,12.43
2019-04-10T11:28:04.070Z,11.53
2019-04-10T11:30:34.566Z,10.87
2019-04-10T11:33:04.477Z,11.23
2019-04-10T11:35:34.923Z,12.07
2019-04-10T11:38:05.841Z,12.40
2019-04-10T11:40:36.544Z,11.67
2019-04-10T11:43:07.680Z,11.73
2019-04-10T11:48:10.290Z,10.93
2019-04-10T11:50:42.482Z,10.57
2019-04-10T11:53:13.662Z,11.40
2019-04-10T11:55:49.551Z,11.10
2019-04-10T11:58:17.666Z,11.40
2019-04-10T12:03:18.322Z,11.10
2019-04-10T12:05:51.147Z,11.23
2019-04-10T12:08:44.730Z,11.40
2019-04-10T12:13:24.153Z,11.37
2019-04-10T12:15:53.891Z,10.80
2019-04-10T12:18:24.653Z,11.83
2019-04-10T12:20:55.586Z,12.00
2019-04-10T12:23:27.139Z,12.80
2019-04-10T12:25:57.069Z,11.90
2019-04-10T12:28:27.730Z,11.07
2019-04-10T12:30:57.716Z,12.10
2019-04-10T12:33:27.644Z,12.00
2019-04-10T12:35:58.229Z,12.10
2019-04-10T12:38:28.070Z,12.30
2019-04-10T12:40:57.739Z,12.03
2019-04-10T12:43:29.306Z,12.27
2019-04-10T12:46:00.253Z,11.23
2019-04-10T12:48:30.468Z,10.87
2019-04-10T12:51:01.172Z,10.50
2019-04-10T12:53:31.754Z,10.63
2019-04-10T12:56:02.011Z,9.57
2019-04-10T12:58:32.907Z,10.83
2019-04-10T13:01:03.159Z,10.50
2019-04-10T13:03:33.425Z,10.80
2019-04-10T13:06:03.498Z,10.40
2019-04-10T13:08:51.489Z,9.87
2019-04-10T13:11:04.826Z,9.27
2019-04-10T13:13:35.760Z,10.10
2019-04-10T13:16:05.755Z,10.00
2019-04-10T13:18:36.428Z,9.80
2019-04-10T13:21:06.398Z,9.47
2019-04-10T13:23:37.005Z,9.50
2019-04-10T13:26:10.577Z,9.80
2019-04-10T13:28:39.426Z,10.00
2019-04-10T13:31:09.286Z,10.00
2019-04-10T13:33:40.516Z,9.87
2019-04-10T13:36:11.349Z,10.53
2019-04-10T13:38:42.174Z,8.93
2019-04-10T13:41:12.307Z,8.83
2019-04-10T13:43:42.272Z,9.13
2019-04-10T13:46:12.964Z,9.50
2019-04-10T13:48:42.999Z,9.23
2019-04-10T13:51:13.121Z,9.60
2019-04-10T13:53:42.948Z,10.30
2019-04-10T13:56:12.892Z,9.40
2019-04-10T13:58:42.681Z,8.83
2019-04-10T14:01:15.407Z,8.43
2019-04-10T14:03:46.836Z,8.53
2019-04-10T14:06:17.225Z,8.83
2019-04-10T14:09:04.740Z,8.10
2019-04-10T14:11:19.354Z,9.67
2019-04-10T14:13:49.256Z,8.77
2019-04-10T14:16:18.933Z,8.47
2019-04-10T14:18:48.825Z,8.27
2019-04-10T14:21:18.918Z,7.83
2019-04-10T14:23:48.730Z,8.13
2019-04-10T14:26:46.020Z,9.20
2019-04-10T14:29:07.666Z,7.67
2019-04-10T14:31:42.668Z,8.80
2019-04-10T14:34:12.457Z,8.53
2019-04-10T14:36:42.386Z,8.23
2019-04-10T14:39:19.336Z,8.83
2019-04-10T14:41:47.466Z,8.60
2019-04-10T14:44:17.908Z,8.50
2019-04-10T14:46:47.754Z,8.07
2019-04-10T14:49:17.457Z,8.33
2019-04-10T14:51:47.138Z,8.63
2019-04-10T14:54:17.219Z,8.70
2019-04-10T14:56:48.349Z,7.50
2019-04-10T14:59:18.307Z,7.90
2019-04-10T15:01:48.371Z,8.40
2019-04-10T15:04:19.315Z,7.50
2019-04-10T15:06:50.014Z,7.90
2019-04-10T15:09:25.722Z,7.40
2019-04-10T15:11:53.292Z,7.77
2019-04-10T15:14:23.723Z,7.70
2019-04-10T15:17:00.038Z,8.00
2019-04-10T15:19:25.210Z,8.73
2019-04-10T15:21:55.741Z,8.00
2019-04-10T15:24:25.828Z,7.57
2019-04-10T15:26:55.759Z,8.27
2019-04-10T15:29:25.518Z,7.43
2019-04-10T15:31:55.896Z,7.40
2019-04-10T15:34:26.129Z,7.57
2019-04-10T15:36:56.399Z,7.53
2019-04-10T15:39:34.017Z,6.87
2019-04-10T15:41:57.679Z,7.80
2019-04-10T15:44:27.988Z,7.67
2019-04-10T15:47:08.539Z,7.20
2019-04-10T15:49:30.634Z,7.73
2019-04-10T15:52:01.522Z,7.87
2019-04-10T15:54:32.128Z,7.13
2019-04-10T15:57:02.634Z,7.10
2019-04-10T15:59:32.621Z,7.50
2019-04-10T16:02:03.528Z,8.00
2019-04-10T16:04:33.766Z,8.33
2019-04-10T16:07:04.130Z,6.97
2019-04-10T16:09:44.610Z,7.57
2019-04-10T16:12:08.125Z,7.60
2019-04-10T16:14:38.118Z,7.20
2019-04-10T16:17:13.475Z,6.83
2019-04-10T16:19:47.078Z,7.07
2019-04-10T16:22:21.853Z,7.53
2019-04-10T16:24:51.939Z,7.53
2019-04-10T16:27:22.152Z,7.63
2019-04-10T16:29:52.914Z,7.50
2019-04-10T16:32:24.711Z,7.00
2019-04-10T16:34:54.704Z,7.40
2019-04-10T16:37:24.681Z,7.77
2019-04-10T16:40:00.307Z,7.80
2019-04-10T16:42:26.536Z,7.20
2019-04-10T16:44:57.538Z,7.23
2019-04-10T16:47:28.260Z,6.97
2019-04-10T16:49:59.229Z,7.13
2019-04-10T16:52:29.225Z,6.77
2019-04-10T16:54:59.788Z,7.00
2019-04-10T16:57:29.718Z,6.70
2019-04-10T16:59:59.430Z,7.33
2019-04-10T17:02:29.155Z,7.17
2019-04-10T17:04:59.050Z,7.07
2019-04-10T17:07:28.766Z,7.07
2019-04-10T17:10:12.616Z,6.90
2019-04-10T17:12:30.095Z,6.90
2019-04-10T17:14:59.857Z,7.23
2019-04-10T17:17:30.526Z,6.73
2019-04-10T17:20:00.625Z,7.03
2019-04-10T17:22:37.305Z,6.10
2019-04-10T17:25:02.288Z,6.77
2019-04-10T17:27:32.175Z,6.60
2019-04-10T17:30:03.304Z,7.60
2019-04-10T17:32:33.220Z,7.43
2019-04-10T17:35:03.258Z,7.07
2019-04-10T17:37:33.873Z,6.53
2019-04-10T17:40:06.176Z,6.93
2019-04-10T17:42:37.698Z,6.50
2019-04-10T17:45:10.042Z,6.67
2019-04-10T17:47:40.906Z,6.47
2019-04-10T17:50:14.034Z,7.83
2019-04-10T17:52:45.155Z,6.27
2019-04-10T17:55:15.613Z,7.10
2019-04-10T17:57:46.403Z,7.23
2019-04-10T18:00:40.010Z,7.17
2019-04-10T18:03:10.970Z,6.40
2019-04-10T18:05:40.910Z,6.80
2019-04-10T18:08:10.899Z,6.57
2019-04-10T18:10:47.447Z,6.83
2019-04-10T18:13:13.305Z,6.37
2019-04-10T18:15:44.150Z,5.73
2019-04-10T18:18:14.058Z,6.23
2019-04-10T18:20:44.397Z,6.20
2019-04-10T18:23:15.422Z,6.83
2019-04-10T18:25:46.400Z,6.33
2019-04-10T18:28:17.098Z,6.90
2019-04-10T18:30:48.078Z,6.00
2019-04-10T18:33:18.301Z,5.60
2019-04-10T18:35:49.067Z,5.93
2019-04-10T18:38:19.561Z,6.23
2019-04-10T18:40:55.963Z,6.10
2019-04-10T18:43:20.884Z,6.10
2019-04-10T18:46:02.912Z,5.93
2019-04-10T18:48:22.861Z,6.47
2019-04-10T18:50:53.786Z,6.30
2019-04-10T18:53:24.689Z,6.20
2019-04-10T18:55:54.698Z,6.03
2019-04-10T18:58:26.013Z,5.80
2019-04-10T19:01:14.244Z,5.87
2019-04-10T19:04:03.075Z,5.70
2019-04-10T19:06:34.237Z,5.63
2019-04-10T19:09:13.168Z,5.83
2019-04-10T19:11:38.308Z,6.30
2019-04-10T19:14:08.077Z,5.97
2019-04-10T19:16:37.990Z,6.00
2019-04-10T19:19:08.521Z,6.07
2019-04-10T19:21:38.308Z,6.10
2019-04-10T19:24:08.467Z,6.20
2019-04-10T19:26:38.288Z,5.57
2019-04-10T19:29:08.123Z,5.70
2019-04-10T19:31:40.275Z,5.70
2019-04-10T19:34:10.135Z,5.40
2019-04-10T19:36:39.873Z,6.10
2019-04-10T19:39:10.759Z,5.00
2019-04-10T19:41:41.831Z,5.10
2019-04-10T19:44:12.867Z,5.00
2019-04-10T19:46:43.820Z,5.43
2019-04-10T19:49:14.297Z,5.70
2019-04-10T19:51:44.144Z,5.10
2019-04-10T19:54:13.902Z,5.13
2019-04-10T19:56:44.621Z,4.83
2019-04-10T19:59:14.594Z,5.20
2019-04-10T20:01:44.551Z,5.10
2019-04-10T20:04:14.518Z,5.23
2019-04-10T20:06:44.769Z,5.33
2019-04-10T20:09:14.804Z,5.20
2019-04-10T20:11:48.727Z,5.70
2019-04-10T20:14:16.872Z,5.23
2019-04-10T20:16:49.281Z,4.93
2019-04-10T20:19:19.356Z,5.23
2019-04-10T20:21:50.299Z,5.30
2019-04-10T20:24:20.795Z,4.97
2019-04-10T20:26:51.735Z,5.47
2019-04-10T20:29:21.487Z,5.23
2019-04-10T20:31:53.315Z,4.60
2019-04-10T20:34:23.294Z,5.67
2019-04-10T20:36:53.335Z,5.17
2019-04-10T20:39:23.232Z,5.30
2019-04-10T20:41:56.309Z,5.10
2019-04-10T20:44:24.883Z,5.10
2019-04-10T20:46:54.902Z,4.97
2019-04-10T20:49:25.860Z,5.57
2019-04-10T20:51:55.780Z,4.93
2019-04-10T20:54:25.531Z,4.70
2019-04-10T20:56:55.248Z,5.20
2019-04-10T20:59:25.059Z,5.47
2019-04-10T21:01:55.824Z,5.20
2019-04-10T21:04:25.603Z,5.23
2019-04-10T21:06:56.494Z,5.33
2019-04-10T21:09:27.668Z,5.03
2019-04-10T21:12:03.872Z,5.17
2019-04-10T21:14:29.673Z,5.10
2019-04-10T21:17:00.362Z,4.47
2019-04-10T21:19:31.209Z,5.43
2019-04-10T21:22:01.632Z,4.90
2019-04-10T21:24:31.584Z,4.73
2019-04-10T21:27:01.384Z,5.23
2019-04-10T21:29:50.589Z,4.80
2019-04-10T21:32:30.710Z,4.67
2019-04-10T21:35:02.200Z,4.43
2019-04-10T21:37:32.619Z,4.70
2019-04-10T21:40:02.802Z,4.77
2019-04-10T21:42:33.589Z,4.87
2019-04-10T21:45:03.491Z,4.50
2019-04-10T21:47:33.449Z,4.50
2019-04-10T21:50:04.490Z,4.93
2019-04-10T21:52:34.802Z,4.33
2019-04-10T21:55:07.046Z,4.67
2019-04-10T21:57:36.835Z,4.40
2019-04-10T22:00:10.401Z,4.23
2019-04-10T22:02:40.189Z,4.73
2019-04-10T22:05:12.368Z,4.63
2019-04-10T22:07:48.290Z,4.27
2019-04-10T22:10:34.905Z,4.80
2019-04-10T22:13:05.790Z,4.37
2019-04-10T22:15:37.420Z,5.17
2019-04-10T22:18:07.389Z,4.43
2019-04-10T22:20:37.292Z,5.00
2019-04-10T22:23:07.548Z,4.07
2019-04-10T22:25:37.418Z,4.80
2019-04-10T22:28:08.332Z,4.37
2019-04-10T22:30:38.386Z,5.00
2019-04-10T22:33:08.152Z,4.87
2019-04-10T22:35:37.892Z,4.50
2019-04-10T22:38:08.896Z,5.03
2019-04-10T22:40:38.584Z,5.20
2019-04-10T22:43:08.460Z,5.10
2019-04-10T22:45:38.375Z,4.63
2019-04-10T22:48:08.432Z,4.90
2019-04-10T22:50:38.619Z,4.83
2019-04-10T22:53:08.861Z,4.50
2019-04-10T22:55:38.575Z,4.60
2019-04-10T22:58:08.698Z,4.90
2019-04-10T23:00:39.724Z,5.03
2019-04-10T23:03:09.703Z,4.40
2019-04-10T23:05:40.571Z,4.53
2019-04-10T23:08:11.541Z,5.03
2019-04-10T23:10:41.452Z,5.60
2019-04-10T23:13:12.016Z,4.80
2019-04-10T23:15:42.143Z,4.73
2019-04-10T23:18:12.987Z,4.53
2019-04-10T23:20:43.826Z,4.27
2019-04-10T23:23:14.652Z,4.60
2019-04-10T23:25:44.740Z,4.80
2019-04-10T23:28:15.607Z,4.77
2019-04-10T23:30:45.431Z,4.10
2019-04-10T23:33:15.552Z,4.40
2019-04-10T23:35:45.489Z,4.97
2019-04-10T23:38:15.299Z,4.53
2019-04-10T23:40:45.215Z,4.23
2019-04-10T23:43:17.865Z,4.53
2019-04-10T23:45:47.677Z,4.90
2019-04-10T23:48:17.934Z,4.60
2019-04-10T23:50:48.275Z,4.50
2019-04-10T23:53:18.344Z,4.40
2019-04-10T23:55:48.298Z,4.33
2019-04-10T23:58:18.095Z,4.37
